sensor_id;sensor_type;location;lat;lon;timestamp;temperature;humidity
72646;DHT22;60687;53.876;10.674;2023-03-11T00:01:04;1.30;99.90
72646;DHT22;60687;53.876;10.674;2023-03-11T00:11:06;1.30;99.90
72646;DHT22;60687;53.876;10.674;2023-03-11T00:21:15;1.30;99.90
72646;DHT22;60687;53.876;10.674;2023-03-11T00:31:17;1.30;99.90
72646;DHT22;60687;53.876;10.674;2023-03-11T00:41:21;1.30;99.90
72646;DHT22;60687;53.876;10.674;2023-03-11T00:51:23;1.30;99.90
72646;DHT22;60687;53.876;10.674;2023-03-11T01:01:27;1.30;99.90
72646;DHT22;60687;53.876;10.674;2023-03-11T01:11:33;1.30;99.90
72646;DHT22;60687;53.876;10.674;2023-03-11T01:21:37;1.30;99.90
72646;DHT22;60687;53.876;10.674;2023-03-11T01:31:41;1.30;99.90
72646;DHT22;60687;53.876;10.674;2023-03-11T01:41:45;1.30;99.90
72646;DHT22;60687;53.876;10.674;2023-03-11T01:51:50;1.30;99.90
72646;DHT22;60687;53.876;10.674;2023-03-11T02:02:00;1.30;99.90
72646;DHT22;60687;53.876;10.674;2023-03-11T02:12:05;1.30;99.90
72646;DHT22;60687;53.876;10.674;2023-03-11T02:22:10;1.30;99.90
72646;DHT22;60687;53.876;10.674;2023-03-11T02:32:16;1.20;99.90
72646;DHT22;60687;53.876;10.674;2023-03-11T02:42:22;1.20;99.90
72646;DHT22;60687;53.876;10.674;2023-03-11T02:52:28;1.20;99.90
72646;DHT22;60687;53.876;10.674;2023-03-11T03:02:32;1.20;99.90
72646;DHT22;60687;53.876;10.674;2023-03-11T03:12:37;1.10;99.90
72646;DHT22;60687;53.876;10.674;2023-03-11T03:22:40;1.10;99.90
72646;DHT22;60687;53.876;10.674;2023-03-11T03:32:46;1.10;99.90
72646;DHT22;60687;53.876;10.674;2023-03-11T03:54:15;1.10;99.90
72646;DHT22;60687;53.876;10.674;2023-03-11T04:04:17;1.10;99.90
72646;DHT22;60687;53.876;10.674;2023-03-11T04:14:21;1.10;99.90
72646;DHT22;60687;53.876;10.674;2023-03-11T04:24:29;1.10;99.90
72646;DHT22;60687;53.876;10.674;2023-03-11T04:34:33;1.00;99.90
72646;DHT22;60687;53.876;10.674;2023-03-11T04:44:35;1.00;99.90
72646;DHT22;60687;53.876;10.674;2023-03-11T04:54:41;1.00;99.90
72646;DHT22;60687;53.876;10.674;2023-03-11T05:04:44;0.90;99.90
72646;DHT22;60687;53.876;10.674;2023-03-11T05:14:49;0.90;99.90
72646;DHT22;60687;53.876;10.674;2023-03-11T05:24:52;0.80;99.90
72646;DHT22;60687;53.876;10.674;2023-03-11T05:34:55;0.70;99.90
72646;DHT22;60687;53.876;10.674;2023-03-11T05:44:58;0.70;99.90
72646;DHT22;60687;53.876;10.674;2023-03-11T05:55:04;0.60;99.90
72646;DHT22;60687;53.876;10.674;2023-03-11T06:05:08;0.60;99.90
72646;DHT22;60687;53.876;10.674;2023-03-11T06:15:12;0.50;99.90
72646;DHT22;60687;53.876;10.674;2023-03-11T06:25:16;0.50;99.90
72646;DHT22;60687;53.876;10.674;2023-03-11T06:35:20;0.40;99.90
72646;DHT22;60687;53.876;10.674;2023-03-11T06:45:26;0.30;99.90
72646;DHT22;60687;53.876;10.674;2023-03-11T06:55:30;0.30;99.90
72646;DHT22;60687;53.876;10.674;2023-03-11T07:05:34;0.40;99.90
72646;DHT22;60687;53.876;10.674;2023-03-11T07:15:42;0.50;99.90
72646;DHT22;60687;53.876;10.674;2023-03-11T07:25:45;0.60;99.90
72646;DHT22;60687;53.876;10.674;2023-03-11T07:35:50;0.60;99.90
72646;DHT22;60687;53.876;10.674;2023-03-11T07:46:01;0.80;99.90
72646;DHT22;60687;53.876;10.674;2023-03-11T07:56:06;1.00;99.90
72646;DHT22;60687;53.876;10.674;2023-03-11T08:06:12;1.20;99.90
72646;DHT22;60687;53.876;10.674;2023-03-11T08:16:18;1.60;99.90
72646;DHT22;60687;53.876;10.674;2023-03-11T08:26:21;1.90;99.90
72646;DHT22;60687;53.876;10.674;2023-03-11T08:36:24;2.20;99.90
72646;DHT22;60687;53.876;10.674;2023-03-11T08:46:29;2.60;99.90
72646;DHT22;60687;53.876;10.674;2023-03-11T08:56:32;2.80;97.00
72646;DHT22;60687;53.876;10.674;2023-03-11T09:06:34;3.20;99.90
72646;DHT22;60687;53.876;10.674;2023-03-11T09:16:38;3.70;99.90
72646;DHT22;60687;53.876;10.674;2023-03-11T09:26:40;4.20;99.90
72646;DHT22;60687;53.876;10.674;2023-03-11T09:36:45;4.50;95.80
72646;DHT22;60687;53.876;10.674;2023-03-11T09:47:13;5.10;99.60
72646;DHT22;60687;53.876;10.674;2023-03-11T09:57:21;5.60;95.70
72646;DHT22;60687;53.876;10.674;2023-03-11T10:07:27;6.00;89.80
72646;DHT22;60687;53.876;10.674;2023-03-11T10:17:51;6.10;85.00
72646;DHT22;60687;53.876;10.674;2023-03-11T10:28:02;6.30;79.10
72646;DHT22;60687;53.876;10.674;2023-03-11T10:38:13;6.30;79.90
72646;DHT22;60687;53.876;10.674;2023-03-11T10:48:17;6.20;73.90
72646;DHT22;60687;53.876;10.674;2023-03-11T10:58:23;5.90;75.60
72646;DHT22;60687;53.876;10.674;2023-03-11T11:08:25;5.60;69.90
72646;DHT22;60687;53.876;10.674;2023-03-11T11:18:32;5.50;73.60
72646;DHT22;60687;53.876;10.674;2023-03-11T11:28:35;5.20;70.20
72646;DHT22;60687;53.876;10.674;2023-03-11T11:38:39;5.10;76.00
72646;DHT22;60687;53.876;10.674;2023-03-11T11:48:48;5.10;78.30
72646;DHT22;60687;53.876;10.674;2023-03-11T11:58:52;5.10;77.80
72646;DHT22;60687;53.876;10.674;2023-03-11T12:09:04;5.10;78.80
72646;DHT22;60687;53.876;10.674;2023-03-11T12:19:27;5.00;77.20
72646;DHT22;60687;53.876;10.674;2023-03-11T12:29:33;5.00;78.50
72646;DHT22;60687;53.876;10.674;2023-03-11T12:39:38;5.00;78.40
72646;DHT22;60687;53.876;10.674;2023-03-11T12:49:41;5.10;79.20
72646;DHT22;60687;53.876;10.674;2023-03-11T13:10:39;5.10;76.30
72646;DHT22;60687;53.876;10.674;2023-03-11T13:20:46;5.00;77.30
72646;DHT22;60687;53.876;10.674;2023-03-11T13:30:52;5.10;77.20
72646;DHT22;60687;53.876;10.674;2023-03-11T13:41:00;5.20;76.30
72646;DHT22;60687;53.876;10.674;2023-03-11T13:51:05;5.30;75.30
72646;DHT22;60687;53.876;10.674;2023-03-11T14:01:15;5.40;73.40
72646;DHT22;60687;53.876;10.674;2023-03-11T14:11:23;5.50;71.70
72646;DHT22;60687;53.876;10.674;2023-03-11T14:21:27;5.40;72.30
72646;DHT22;60687;53.876;10.674;2023-03-11T14:31:33;5.30;74.00
72646;DHT22;60687;53.876;10.674;2023-03-11T14:41:39;5.40;72.50
72646;DHT22;60687;53.876;10.674;2023-03-11T14:51:41;5.60;71.20
72646;DHT22;60687;53.876;10.674;2023-03-11T15:01:45;5.60;69.90
72646;DHT22;60687;53.876;10.674;2023-03-11T15:11:50;5.60;70.70
72646;DHT22;60687;53.876;10.674;2023-03-11T15:22:04;5.60;69.80
72646;DHT22;60687;53.876;10.674;2023-03-11T15:32:37;5.60;70.40
72646;DHT22;60687;53.876;10.674;2023-03-11T15:42:41;5.50;69.10
72646;DHT22;60687;53.876;10.674;2023-03-11T15:52:43;5.50;69.90
72646;DHT22;60687;53.876;10.674;2023-03-11T16:02:47;5.50;68.10
72646;DHT22;60687;53.876;10.674;2023-03-11T16:12:49;5.40;68.30
72646;DHT22;60687;53.876;10.674;2023-03-11T16:22:55;5.40;69.10
72646;DHT22;60687;53.876;10.674;2023-03-11T16:32:58;5.40;70.50
72646;DHT22;60687;53.876;10.674;2023-03-11T16:43:03;5.20;73.90
72646;DHT22;60687;53.876;10.674;2023-03-11T16:53:06;5.00;76.90
72646;DHT22;60687;53.876;10.674;2023-03-11T17:03:11;4.80;78.70
72646;DHT22;60687;53.876;10.674;2023-03-11T17:13:13;4.70;79.90
72646;DHT22;60687;53.876;10.674;2023-03-11T17:23:17;4.50;81.00
72646;DHT22;60687;53.876;10.674;2023-03-11T17:33:19;4.40;82.10
72646;DHT22;60687;53.876;10.674;2023-03-11T17:43:23;4.30;83.30
72646;DHT22;60687;53.876;10.674;2023-03-11T17:53:25;4.10;87.80
72646;DHT22;60687;53.876;10.674;2023-03-11T18:03:28;3.90;91.80
72646;DHT22;60687;53.876;10.674;2023-03-11T18:13:31;3.70;94.70
72646;DHT22;60687;53.876;10.674;2023-03-11T18:23:35;3.60;94.90
72646;DHT22;60687;53.876;10.674;2023-03-11T18:33:38;3.60;97.30
72646;DHT22;60687;53.876;10.674;2023-03-11T18:43:42;3.50;98.90
72646;DHT22;60687;53.876;10.674;2023-03-11T18:53:44;3.40;99.60
72646;DHT22;60687;53.876;10.674;2023-03-11T19:03:50;3.40;99.90
72646;DHT22;60687;53.876;10.674;2023-03-11T19:13:52;3.30;99.90
72646;DHT22;60687;53.876;10.674;2023-03-11T19:23:57;3.20;99.90
72646;DHT22;60687;53.876;10.674;2023-03-11T19:34:00;3.10;99.90
72646;DHT22;60687;53.876;10.674;2023-03-11T19:44:05;3.00;99.90
72646;DHT22;60687;53.876;10.674;2023-03-11T19:54:08;3.00;99.90
72646;DHT22;60687;53.876;10.674;2023-03-11T20:04:15;3.00;99.90
72646;DHT22;60687;53.876;10.674;2023-03-11T20:14:17;3.00;99.90
72646;DHT22;60687;53.876;10.674;2023-03-11T20:24:21;2.90;99.90
72646;DHT22;60687;53.876;10.674;2023-03-11T20:34:24;2.90;99.90
72646;DHT22;60687;53.876;10.674;2023-03-11T20:44:28;2.90;99.90
72646;DHT22;60687;53.876;10.674;2023-03-11T20:54:30;2.80;99.90
72646;DHT22;60687;53.876;10.674;2023-03-11T21:04:35;2.70;99.90
72646;DHT22;60687;53.876;10.674;2023-03-11T21:14:40;2.70;99.90
72646;DHT22;60687;53.876;10.674;2023-03-11T21:24:44;2.60;99.90
72646;DHT22;60687;53.876;10.674;2023-03-11T21:34:47;2.60;99.90
72646;DHT22;60687;53.876;10.674;2023-03-11T21:44:51;2.50;99.90
72646;DHT22;60687;53.876;10.674;2023-03-11T21:54:54;2.60;99.90
72646;DHT22;60687;53.876;10.674;2023-03-11T22:04:57;2.60;99.90
72646;DHT22;60687;53.876;10.674;2023-03-11T22:15:00;2.60;99.90
72646;DHT22;60687;53.876;10.674;2023-03-11T22:25:05;2.60;99.90
72646;DHT22;60687;53.876;10.674;2023-03-11T22:35:08;2.50;99.90
72646;DHT22;60687;53.876;10.674;2023-03-11T22:45:12;2.50;99.90
72646;DHT22;60687;53.876;10.674;2023-03-11T22:55:15;2.50;99.90
72646;DHT22;60687;53.876;10.674;2023-03-11T23:05:19;2.50;99.90
72646;DHT22;60687;53.876;10.674;2023-03-11T23:15:22;2.50;99.90
72646;DHT22;60687;53.876;10.674;2023-03-11T23:25:26;2.50;99.90
72646;DHT22;60687;53.876;10.674;2023-03-11T23:35:28;2.50;99.90
72646;DHT22;60687;53.876;10.674;2023-03-11T23:45:32;2.50;99.90
72646;DHT22;60687;53.876;10.674;2023-03-11T23:55:36;2.50;99.90
